Time,TemperatureF,DewpointF,PressureIn,WindDirection,WindDirectionDegrees,WindSpeedMPH,WindSpeedGustMPH,Humidity,HourlyPrecipIn,Conditions,Clouds,dailyrainin,SoftwareType,DateUTC
2013-01-03 00:00:00,20.5,12.6,28.93,WNW,296,3.0,6.0,71,0.00,,---,0.00,VWS V14.01,2013-01-03 05:00:00,
2013-01-03 00:05:00,20.6,13.0,28.95,WNW,288,2.0,4.0,72,0.00,,---,0.00,VWS V14.01,2013-01-03 05:05:00,
2013-01-03 00:07:00,20.6,13.0,28.95,WNW,288,1.0,4.0,72,0.00,,---,0.00,VWS V14.01,2013-01-03 05:07:00,
2013-01-03 00:09:00,20.6,12.7,28.95,WNW,288,1.0,4.0,71,0.00,,---,0.00,VWS V14.01,2013-01-03 05:09:00,
2013-01-03 00:11:00,20.6,13.0,28.94,WNW,286,1.0,4.0,72,0.00,,---,0.00,VWS V14.01,2013-01-03 05:11:00,
2013-01-03 00:17:00,20.7,13.1,28.95,WNW,286,1.0,4.0,72,0.00,,---,0.00,VWS V14.01,2013-01-03 05:17:00,
2013-01-03 00:23:00,20.7,12.8,28.94,WNW,286,4.0,4.0,71,0.00,,---,0.00,VWS V14.01,2013-01-03 05:23:00,
2013-01-03 00:29:00,20.8,13.2,28.94,WNW,300,1.0,4.0,72,0.00,,---,0.00,VWS V14.01,2013-01-03 05:29:00,
2013-01-03 00:30:00,20.1,12.2,28.93,WNW,286,5.0,7.0,71,0.00,,---,0.00,VWS V14.01,2013-01-03 05:30:00,
2013-01-03 00:35:00,20.7,12.8,28.94,WNW,299,3.0,5.0,71,0.00,,---,0.00,VWS V14.01,2013-01-03 05:35:00,
2013-01-03 00:41:00,20.6,12.7,28.94,NW,320,4.0,6.0,71,0.00,,---,0.00,VWS V14.01,2013-01-03 05:41:00,
2013-01-03 00:47:00,20.5,12.6,28.93,WNW,282,2.0,6.0,71,0.00,,---,0.00,VWS V14.01,2013-01-03 05:47:00,
2013-01-03 00:53:00,20.5,12.6,28.93,WNW,282,3.0,6.0,71,0.00,,---,0.00,VWS V14.01,2013-01-03 05:53:00,
2013-01-03 00:59:00,20.5,12.6,28.93,WNW,296,2.0,6.0,71,0.00,,---,0.00,VWS V14.01,2013-01-03 05:59:00,
2013-01-03 01:00:00,20.0,12.1,28.93,WNW,292,3.0,7.0,71,0.00,,---,0.00,VWS V14.01,2013-01-03 06:00:00,
2013-01-03 01:05:00,20.4,12.5,28.93,WNW,290,5.0,7.0,71,0.00,,---,0.00,VWS V14.01,2013-01-03 06:05:00,
2013-01-03 01:11:00,20.3,12.4,28.93,WNW,301,4.0,7.0,71,0.00,,---,0.00,VWS V14.01,2013-01-03 06:11:00,
2013-01-03 01:17:00,20.2,12.3,28.93,WNW,299,4.0,7.0,71,0.00,,---,0.00,VWS V14.01,2013-01-03 06:17:00,
2013-01-03 01:23:00,20.1,12.2,28.93,WSW,253,2.0,7.0,71,0.00,,---,0.00,VWS V14.01,2013-01-03 06:23:00,
2013-01-03 01:29:00,20.1,12.5,28.93,WNW,286,6.0,7.0,72,0.00,,---,0.00,VWS V14.01,2013-01-03 06:29:00,
2013-01-03 01:30:00,19.9,12.0,28.93,WNW,284,3.0,7.0,71,0.00,,---,0.00,VWS V14.01,2013-01-03 06:30:00,
2013-01-03 01:36:00,20.0,12.1,28.93,WNW,285,2.0,5.0,71,0.00,,---,0.00,VWS V14.01,2013-01-03 06:36:00,
2013-01-03 01:42:00,20.1,12.2,28.93,NW,308,4.0,6.0,71,0.00,,---,0.00,VWS V14.01,2013-01-03 06:42:00,
2013-01-03 01:48:00,20.1,12.2,28.93,NW,322,1.0,6.0,71,0.00,,---,0.00,VWS V14.01,2013-01-03 06:48:00,
2013-01-03 01:54:00,20.0,12.1,28.93,NW,322,2.0,6.0,71,0.00,,---,0.00,VWS V14.01,2013-01-03 06:54:00,
2013-01-03 02:00:00,20.0,12.1,28.93,WNW,292,3.0,7.0,71,0.00,,---,0.00,VWS V14.01,2013-01-03 07:00:00,
2013-01-03 02:06:00,19.9,12.0,28.93,West,281,2.0,5.0,71,0.00,,---,0.00,VWS V14.01,2013-01-03 07:06:00,
2013-01-03 02:12:00,19.9,12.0,28.93,West,281,4.0,5.0,71,0.00,,---,0.00,VWS V14.01,2013-01-03 07:12:00,
2013-01-03 02:18:00,19.9,12.0,28.93,West,278,2.0,5.0,71,0.00,,---,0.00,VWS V14.01,2013-01-03 07:18:00,
2013-01-03 02:24:00,20.0,12.1,28.93,WNW,285,3.0,7.0,71,0.00,,---,0.00,VWS V14.01,2013-01-03 07:24:00,
2013-01-03 02:30:00,19.9,12.0,28.93,WNW,284,3.0,7.0,71,0.00,,---,0.00,VWS V14.01,2013-01-03 07:30:00,
2013-01-03 02:36:00,19.9,12.0,28.93,WNW,284,3.0,6.0,71,0.00,,---,0.00,VWS V14.01,2013-01-03 07:36:00,
2013-01-03 02:42:00,19.8,11.9,28.93,WNW,285,2.0,6.0,71,0.00,,---,0.00,VWS V14.01,2013-01-03 07:42:00,
2013-01-03 02:48:00,19.9,12.0,28.94,WNW,286,1.0,6.0,71,0.00,,---,0.00,VWS V14.01,2013-01-03 07:48:00,
2013-01-03 02:54:00,19.9,12.0,28.94,WNW,286,2.0,6.0,71,0.00,,---,0.00,VWS V14.01,2013-01-03 07:54:00,
2013-01-03 03:00:00,19.9,12.0,28.94,WNW,286,3.0,6.0,71,0.00,,---,0.00,VWS V14.01,2013-01-03 08:00:00,
2013-01-03 03:06:00,19.9,12.0,28.94,NW,311,5.0,8.0,71,0.00,,---,0.00,VWS V14.01,2013-01-03 08:06:00,
2013-01-03 03:12:00,19.9,12.0,28.93,West,272,3.0,8.0,71,0.00,,---,0.00,VWS V14.01,2013-01-03 08:12:00,
2013-01-03 03:18:00,19.8,11.9,28.93,WSW,257,4.0,11.0,71,0.00,,---,0.00,VWS V14.01,2013-01-03 08:18:00,
2013-01-03 03:25:00,19.7,11.8,28.92,WNW,287,3.0,11.0,71,0.00,,---,0.00,VWS V14.01,2013-01-03 08:25:00,
2013-01-03 03:30:00,19.8,11.9,28.92,WNW,286,4.0,11.0,71,0.00,,---,0.00,VWS V14.01,2013-01-03 08:30:00,
2013-01-03 03:37:00,19.8,11.9,28.92,NW,309,1.0,6.0,71,0.00,,---,0.00,VWS V14.01,2013-01-03 08:37:00,
2013-01-03 03:43:00,19.7,11.8,28.92,West,266,4.0,8.0,71,0.00,,---,0.00,VWS V14.01,2013-01-03 08:43:00,
2013-01-03 03:49:00,19.8,11.9,28.92,WNW,291,5.0,8.0,71,0.00,,---,0.00,VWS V14.01,2013-01-03 08:49:00,
2013-01-03 03:55:00,19.8,11.9,28.92,NW,317,3.0,8.0,71,0.00,,---,0.00,VWS V14.01,2013-01-03 08:55:00,
2013-01-03 04:00:00,19.5,11.0,28.91,WNW,286,4.0,7.0,69,0.00,,---,0.00,VWS V14.01,2013-01-03 09:00:00,
2013-01-03 04:01:00,19.7,11.8,28.92,NW,311,3.0,5.0,71,0.00,,---,0.00,VWS V14.01,2013-01-03 09:01:00,
2013-01-03 04:07:00,19.7,11.8,28.92,NNW,328,1.0,7.0,71,0.00,,---,0.00,VWS V14.01,2013-01-03 09:07:00,
2013-01-03 04:13:00,19.7,11.5,28.92,WNW,294,3.0,7.0,70,0.00,,---,0.00,VWS V14.01,2013-01-03 09:13:00,
2013-01-03 04:19:00,19.7,11.8,28.92,WNW,294,1.0,7.0,71,0.00,,---,0.00,VWS V14.01,2013-01-03 09:19:00,
2013-01-03 04:25:00,19.6,11.4,28.92,West,279,2.0,8.0,70,0.00,,---,0.00,VWS V14.01,2013-01-03 09:25:00,
2013-01-03 04:30:00,19.4,10.9,28.92,NW,316,5.0,9.0,69,0.00,,---,0.00,VWS V14.01,2013-01-03 09:30:00,
2013-01-03 04:31:00,19.6,11.4,28.92,WNW,282,0.0,1.0,70,0.00,,---,0.00,VWS V14.01,2013-01-03 09:31:00,
2013-01-03 04:37:00,19.7,11.5,28.92,NW,316,3.0,4.0,70,0.00,,---,0.00,VWS V14.01,2013-01-03 09:37:00,
2013-01-03 04:44:00,19.7,11.5,28.91,NW,316,1.0,4.0,70,0.00,,---,0.00,VWS V14.01,2013-01-03 09:44:00,
2013-01-03 04:50:00,19.5,11.3,28.91,NNW,337,2.0,6.0,70,0.00,,---,0.00,VWS V14.01,2013-01-03 09:50:00,
2013-01-03 04:56:00,19.5,11.0,28.91,NW,313,3.0,6.0,69,0.00,,---,0.00,VWS V14.01,2013-01-03 09:56:00,
2013-01-03 05:00:00,19.2,10.4,28.91,NW,314,5.0,12.0,68,0.00,,---,0.00,VWS V14.01,2013-01-03 10:00:00,
2013-01-03 05:02:00,19.5,11.0,28.91,WNW,286,6.0,6.0,69,0.00,,---,0.00,VWS V14.01,2013-01-03 10:02:00,
2013-01-03 05:08:00,19.5,11.0,28.91,WNW,294,3.0,6.0,69,0.00,,---,0.00,VWS V14.01,2013-01-03 10:08:00,
2013-01-03 05:14:00,19.4,10.9,28.91,NW,317,4.0,9.0,69,0.00,,---,0.00,VWS V14.01,2013-01-03 10:14:00,
2013-01-03 05:20:00,19.4,10.6,28.92,WNW,282,3.0,9.0,68,0.00,,---,0.00,VWS V14.01,2013-01-03 10:20:00,
2013-01-03 05:26:00,19.4,10.6,28.92,WNW,294,3.0,9.0,68,0.00,,---,0.00,VWS V14.01,2013-01-03 10:26:00,
2013-01-03 05:30:00,18.8,10.0,28.92,NNW,333,4.0,12.0,68,0.00,,---,0.00,VWS V14.01,2013-01-03 10:30:00,
2013-01-03 05:32:00,19.4,10.6,28.92,NW,315,3.0,6.0,68,0.00,,---,0.00,VWS V14.01,2013-01-03 10:32:00,
2013-01-03 05:38:00,19.3,10.5,28.92,WNW,296,7.0,12.0,68,0.00,,---,0.00,VWS V14.01,2013-01-03 10:38:00,
2013-01-03 05:44:00,19.2,10.4,28.92,WNW,300,3.0,12.0,68,0.00,,---,0.00,VWS V14.01,2013-01-03 10:44:00,
2013-01-03 05:50:00,19.2,10.4,28.92,NW,325,2.0,12.0,68,0.00,,---,0.00,VWS V14.01,2013-01-03 10:50:00,
2013-01-03 05:56:00,19.2,10.4,28.91,NW,310,3.0,12.0,68,0.00,,---,0.00,VWS V14.01,2013-01-03 10:56:00,
2013-01-03 06:00:00,18.3,9.5,28.91,West,275,3.0,9.0,68,0.00,,---,0.00,VWS V14.01,2013-01-03 11:00:00,
2013-01-03 06:02:00,19.1,10.3,28.91,West,266,2.0,7.0,68,0.00,,---,0.00,VWS V14.01,2013-01-03 11:02:00,
2013-01-03 06:08:00,19.1,10.3,28.91,North,358,2.0,7.0,68,0.00,,---,0.00,VWS V14.01,2013-01-03 11:08:00,
2013-01-03 06:14:00,19.0,10.2,28.91,WNW,285,7.0,12.0,68,0.00,,---,0.00,VWS V14.01,2013-01-03 11:14:00,
2013-01-03 06:20:00,18.9,10.1,28.91,NW,320,6.0,12.0,68,0.00,,---,0.00,VWS V14.01,2013-01-03 11:20:00,
2013-01-03 06:26:00,18.8,10.0,28.92,NNW,344,3.0,12.0,68,0.00,,---,0.00,VWS V14.01,2013-01-03 11:26:00,
2013-01-03 06:30:00,17.5,9.1,28.89,WNW,288,5.0,11.0,69,0.00,,---,0.00,VWS V14.01,2013-01-03 11:30:00,
2013-01-03 06:32:00,18.8,10.0,28.92,NW,318,5.0,7.0,68,0.00,,---,0.00,VWS V14.01,2013-01-03 11:32:00,
2013-01-03 06:39:00,18.7,9.9,28.92,WNW,292,1.0,9.0,68,0.00,,---,0.00,VWS V14.01,2013-01-03 11:39:00,
2013-01-03 06:45:00,18.7,9.9,28.93,WNW,296,4.0,9.0,68,0.00,,---,0.00,VWS V14.01,2013-01-03 11:45:00,
2013-01-03 06:51:00,18.5,9.7,28.92,NW,313,5.0,9.0,68,0.00,,---,0.00,VWS V14.01,2013-01-03 11:51:00,
2013-01-03 06:57:00,18.4,9.6,28.92,West,270,2.0,9.0,68,0.00,,---,0.00,VWS V14.01,2013-01-03 11:57:00,
2013-01-03 07:00:00,17.4,9.6,28.87,West,266,1.0,8.0,71,0.00,,---,0.00,VWS V14.01,2013-01-03 12:00:00,
2013-01-03 07:03:00,18.3,9.5,28.91,WNW,296,3.0,8.0,68,0.00,,---,0.00,VWS V14.01,2013-01-03 12:03:00,
2013-01-03 07:09:00,18.1,9.3,28.91,NW,314,3.0,8.0,68,0.00,,---,0.00,VWS V14.01,2013-01-03 12:09:00,
2013-01-03 07:15:00,17.9,9.1,28.90,West,279,6.0,11.0,68,0.00,,---,0.00,VWS V14.01,2013-01-03 12:15:00,
2013-01-03 07:21:00,17.7,8.9,28.89,WSW,246,4.0,11.0,68,0.00,,---,0.00,VWS V14.01,2013-01-03 12:21:00,
2013-01-03 07:27:00,17.6,9.2,28.89,WNW,299,3.0,11.0,69,0.00,,---,0.00,VWS V14.01,2013-01-03 12:27:00,
2013-01-03 07:30:00,17.5,10.3,28.88,WNW,290,4.0,9.0,73,0.00,,---,0.00,VWS V14.01,2013-01-03 12:30:00,
2013-01-03 07:33:00,17.5,9.1,28.88,West,280,2.0,6.0,69,0.00,,---,0.00,VWS V14.01,2013-01-03 12:33:00,
2013-01-03 07:39:00,17.4,9.0,28.88,WNW,289,3.0,8.0,69,0.00,,---,0.00,VWS V14.01,2013-01-03 12:39:00,
2013-01-03 07:45:00,17.5,9.4,28.88,WNW,293,3.0,8.0,70,0.00,,---,0.00,VWS V14.01,2013-01-03 12:45:00,
2013-01-03 07:51:00,17.4,9.3,28.87,West,276,5.0,8.0,70,0.00,,---,0.00,VWS V14.01,2013-01-03 12:51:00,
2013-01-03 07:57:00,17.4,9.3,28.87,WSW,257,7.0,8.0,70,0.00,,---,0.00,VWS V14.01,2013-01-03 12:57:00,
2013-01-03 08:00:00,17.3,10.8,28.88,West,272,7.0,11.0,75,0.00,,---,0.00,VWS V14.01,2013-01-03 13:00:00,
2013-01-03 08:03:00,17.4,9.6,28.87,WSW,257,9.0,9.0,71,0.00,,---,0.00,VWS V14.01,2013-01-03 13:03:00,
2013-01-03 08:09:00,17.4,9.9,28.87,West,279,4.0,9.0,72,0.00,,---,0.00,VWS V14.01,2013-01-03 13:09:00,
2013-01-03 08:15:00,17.4,9.9,28.87,WSW,251,3.0,9.0,72,0.00,,---,0.00,VWS V14.01,2013-01-03 13:15:00,
2013-01-03 08:21:00,17.5,10.0,28.87,WSW,258,3.0,9.0,72,0.00,,---,0.00,VWS V14.01,2013-01-03 13:21:00,
2013-01-03 08:27:00,17.5,10.0,28.88,West,266,3.0,9.0,72,0.00,,---,0.00,VWS V14.01,2013-01-03 13:27:00,
2013-01-03 08:30:00,17.3,11.3,28.89,WNW,285,8.0,11.0,77,0.00,,---,0.00,VWS V14.01,2013-01-03 13:30:00,
2013-01-03 08:33:00,17.5,10.3,28.88,WNW,294,3.0,9.0,73,0.00,,---,0.00,VWS V14.01,2013-01-03 13:33:00,
2013-01-03 08:39:00,17.5,10.3,28.88,West,280,7.0,11.0,73,0.00,,---,0.00,VWS V14.01,2013-01-03 13:39:00,
2013-01-03 08:45:00,17.5,10.6,28.88,WNW,285,2.0,11.0,74,0.00,,---,0.00,VWS V14.01,2013-01-03 13:45:00,
2013-01-03 08:52:00,17.4,10.6,28.88,WNW,300,4.0,11.0,74,0.00,,---,0.00,VWS V14.01,2013-01-03 13:52:00,
2013-01-03 08:58:00,17.4,10.9,28.88,West,280,5.0,11.0,75,0.00,,---,0.00,VWS V14.01,2013-01-03 13:58:00,
2013-01-03 09:00:00,18.2,12.2,28.88,WNW,290,8.0,12.0,77,0.00,,---,0.00,VWS V14.01,2013-01-03 14:00:00,
2013-01-03 09:04:00,17.4,10.9,28.88,WNW,301,3.0,7.0,75,0.00,,---,0.00,VWS V14.01,2013-01-03 14:04:00,
2013-01-03 09:10:00,17.4,10.9,28.89,WSW,244,7.0,11.0,75,0.00,,---,0.00,VWS V14.01,2013-01-03 14:10:00,
2013-01-03 09:16:00,17.3,11.1,28.88,West,260,2.0,11.0,76,0.00,,---,0.00,VWS V14.01,2013-01-03 14:16:00,
2013-01-03 09:22:00,17.3,11.1,28.89,West,281,5.0,11.0,76,0.00,,---,0.00,VWS V14.01,2013-01-03 14:22:00,
2013-01-03 09:28:00,17.3,11.3,28.88,WNW,282,5.0,11.0,77,0.00,,---,0.00,VWS V14.01,2013-01-03 14:28:00,
2013-01-03 09:30:00,19.1,11.6,28.87,West,264,4.0,11.0,72,0.00,,---,0.00,VWS V14.01,2013-01-03 14:30:00,
2013-01-03 09:34:00,17.4,11.4,28.89,WSW,256,5.0,8.0,77,0.00,,---,0.00,VWS V14.01,2013-01-03 14:34:00,
2013-01-03 09:40:00,17.6,11.6,28.89,West,268,4.0,8.0,77,0.00,,---,0.00,VWS V14.01,2013-01-03 14:40:00,
2013-01-03 09:46:00,17.7,11.7,28.88,NW,310,6.0,9.0,77,0.00,,---,0.00,VWS V14.01,2013-01-03 14:46:00,
2013-01-03 09:52:00,17.8,11.8,28.88,NW,304,4.0,12.0,77,0.00,,---,0.00,VWS V14.01,2013-01-03 14:52:00,
2013-01-03 09:58:00,18.1,12.1,28.88,West,259,2.0,12.0,77,0.00,,---,0.00,VWS V14.01,2013-01-03 14:58:00,
2013-01-03 10:00:00,20.5,12.9,28.85,WNW,286,4.0,11.0,72,0.00,,---,0.00,VWS V14.01,2013-01-03 15:00:00,
2013-01-03 10:04:00,18.2,11.9,28.88,West,262,3.0,9.0,76,0.00,,---,0.00,VWS V14.01,2013-01-03 15:04:00,
2013-01-03 10:10:00,18.4,11.8,28.88,West,279,4.0,9.0,75,0.00,,---,0.00,VWS V14.01,2013-01-03 15:10:00,
2013-01-03 10:16:00,18.6,11.7,28.88,West,277,7.0,11.0,74,0.00,,---,0.00,VWS V14.01,2013-01-03 15:16:00,
2013-01-03 10:22:00,18.9,11.7,28.88,West,264,5.0,11.0,73,0.00,,---,0.00,VWS V14.01,2013-01-03 15:22:00,
2013-01-03 10:28:00,19.1,11.6,28.87,West,261,3.0,11.0,72,0.00,,---,0.00,VWS V14.01,2013-01-03 15:28:00,
2013-01-03 10:30:00,22.1,14.1,28.84,WNW,300,6.0,12.0,71,0.00,,---,0.00,VWS V14.01,2013-01-03 15:30:00,
2013-01-03 10:34:00,19.4,11.9,28.87,WSW,254,3.0,6.0,72,0.00,,---,0.00,VWS V14.01,2013-01-03 15:34:00,
2013-01-03 10:40:00,19.7,12.1,28.87,WSW,257,4.0,7.0,72,0.00,,---,0.00,VWS V14.01,2013-01-03 15:40:00,
2013-01-03 10:46:00,20.0,12.1,28.87,West,260,2.0,7.0,71,0.00,,---,0.00,VWS V14.01,2013-01-03 15:46:00,
2013-01-03 10:53:00,20.4,12.5,28.86,WSW,244,7.0,10.0,71,0.00,,---,0.00,VWS V14.01,2013-01-03 15:53:00,
2013-01-03 10:59:00,20.5,12.6,28.86,SW,229,4.0,11.0,71,0.00,,---,0.00,VWS V14.01,2013-01-03 15:59:00,
2013-01-03 11:00:00,22.7,14.1,28.82,West,265,7.0,13.0,69,0.00,,---,0.00,VWS V14.01,2013-01-03 16:00:00,
2013-01-03 11:05:00,20.8,13.2,28.85,WSW,255,2.0,12.0,72,0.00,,---,0.00,VWS V14.01,2013-01-03 16:05:00,
2013-01-03 11:11:00,21.2,13.6,28.85,West,268,5.0,12.0,72,0.00,,---,0.00,VWS V14.01,2013-01-03 16:11:00,
2013-01-03 11:17:00,21.3,13.7,28.85,West,259,3.0,12.0,72,0.00,,---,0.00,VWS V14.01,2013-01-03 16:17:00,
2013-01-03 11:23:00,21.7,14.1,28.84,West,261,5.0,12.0,72,0.00,,---,0.00,VWS V14.01,2013-01-03 16:23:00,
2013-01-03 11:29:00,22.1,14.1,28.84,NW,311,5.0,12.0,71,0.00,,---,0.00,VWS V14.01,2013-01-03 16:29:00,
2013-01-03 11:30:00,23.1,13.4,28.81,WNW,302,3.0,12.0,66,0.00,,---,0.00,VWS V14.01,2013-01-03 16:30:00,
2013-01-03 11:35:00,22.2,14.2,28.84,West,270,4.0,13.0,71,0.00,,---,0.00,VWS V14.01,2013-01-03 16:35:00,
2013-01-03 11:41:00,22.5,14.5,28.83,WNW,282,7.0,13.0,71,0.00,,---,0.00,VWS V14.01,2013-01-03 16:41:00,
2013-01-03 11:47:00,22.6,14.3,28.83,West,274,4.0,13.0,70,0.00,,---,0.00,VWS V14.01,2013-01-03 16:47:00,
2013-01-03 11:53:00,22.7,14.4,28.83,West,275,6.0,13.0,70,0.00,,---,0.00,VWS V14.01,2013-01-03 16:53:00,
2013-01-03 11:59:00,22.7,14.1,28.82,WSW,255,7.0,13.0,69,0.00,,---,0.00,VWS V14.01,2013-01-03 16:59:00,
2013-01-03 12:00:00,24.2,13.4,28.79,WSW,257,4.0,11.0,63,0.00,,---,0.00,VWS V14.01,2013-01-03 17:00:00,
2013-01-03 12:05:00,22.8,14.2,28.82,West,278,7.0,9.0,69,0.00,,---,0.00,VWS V14.01,2013-01-03 17:05:00,
2013-01-03 12:13:00,22.8,14.2,28.81,WNW,289,5.0,12.0,69,0.00,,---,0.00,VWS V14.01,2013-01-03 17:13:00,
2013-01-03 12:19:00,23.0,14.0,28.81,NW,317,4.0,12.0,68,0.00,,---,0.00,VWS V14.01,2013-01-03 17:19:00,
2013-01-03 12:25:00,23.1,13.8,28.81,West,270,8.0,12.0,67,0.00,,---,0.00,VWS V14.01,2013-01-03 17:25:00,
2013-01-03 12:30:00,25.0,14.6,28.78,NW,312,3.0,11.0,64,0.00,,---,0.00,VWS V14.01,2013-01-03 17:30:00,
2013-01-03 12:31:00,23.1,13.4,28.81,WNW,289,5.0,8.0,66,0.00,,---,0.00,VWS V14.01,2013-01-03 17:31:00,
2013-01-03 12:38:00,23.3,13.3,28.80,WNW,290,6.0,8.0,65,0.00,,---,0.00,VWS V14.01,2013-01-03 17:38:00,
2013-01-03 12:44:00,23.6,13.6,28.79,West,262,8.0,11.0,65,0.00,,---,0.00,VWS V14.01,2013-01-03 17:44:00,
2013-01-03 12:50:00,23.9,13.5,28.80,West,268,7.0,11.0,64,0.00,,---,0.00,VWS V14.01,2013-01-03 17:50:00,
2013-01-03 12:56:00,24.0,13.2,28.79,West,279,6.0,11.0,63,0.00,,---,0.00,VWS V14.01,2013-01-03 17:56:00,
2013-01-03 13:00:00,23.8,16.4,28.78,WNW,295,4.0,17.0,73,0.00,,---,0.00,VWS V14.01,2013-01-03 18:00:00,
2013-01-03 13:02:00,24.3,13.9,28.79,WSW,257,4.0,5.0,64,0.00,,---,0.00,VWS V14.01,2013-01-03 18:02:00,
2013-01-03 13:08:00,24.6,14.2,28.79,West,280,10.0,10.0,64,0.00,,---,0.00,VWS V14.01,2013-01-03 18:08:00,
2013-01-03 13:14:00,24.9,14.1,28.79,West,281,3.0,10.0,63,0.00,,---,0.00,VWS V14.01,2013-01-03 18:14:00,
2013-01-03 13:20:00,25.1,14.3,28.79,WNW,303,5.0,10.0,63,0.00,,---,0.00,VWS V14.01,2013-01-03 18:20:00,
2013-01-03 13:26:00,25.1,14.6,28.78,WNW,296,5.0,11.0,64,0.00,,---,0.00,VWS V14.01,2013-01-03 18:26:00,
2013-01-03 13:30:00,24.1,16.7,28.78,NW,316,1.0,11.0,73,0.00,,---,0.00,VWS V14.01,2013-01-03 18:30:00,
2013-01-03 13:32:00,25.0,14.9,28.78,NW,312,5.0,13.0,65,0.00,,---,0.00,VWS V14.01,2013-01-03 18:32:00,
2013-01-03 13:38:00,25.1,15.0,28.78,NNW,329,8.0,13.0,65,0.00,,---,0.00,VWS V14.01,2013-01-03 18:38:00,
2013-01-03 13:44:00,24.7,15.0,28.78,WNW,295,3.0,17.0,66,0.00,,---,0.00,VWS V14.01,2013-01-03 18:44:00,
2013-01-03 13:50:00,24.6,15.9,28.78,WNW,295,7.0,17.0,69,0.00,,---,0.00,VWS V14.01,2013-01-03 18:50:00,
2013-01-03 13:56:00,23.9,16.2,28.77,WNW,293,3.0,17.0,72,0.00,,---,0.00,VWS V14.01,2013-01-03 18:56:00,
2013-01-03 14:00:00,24.4,16.4,28.78,NW,326,8.0,16.0,71,0.00,,---,0.00,VWS V14.01,2013-01-03 19:00:00,
2013-01-03 14:02:00,23.8,16.4,28.78,WSW,240,2.0,7.0,73,0.00,,---,0.00,VWS V14.01,2013-01-03 19:02:00,
2013-01-03 14:08:00,23.8,16.4,28.78,NW,310,7.0,11.0,73,0.00,,---,0.00,VWS V14.01,2013-01-03 19:08:00,
2013-01-03 14:14:00,23.9,16.8,28.77,West,281,7.0,11.0,74,0.00,,---,0.00,VWS V14.01,2013-01-03 19:14:00,
2013-01-03 14:30:00,24.7,17.0,28.78,WNW,283,5.0,9.0,72,0.00,,---,0.00,VWS V14.01,2013-01-03 19:30:00,
2013-01-03 14:52:00,24.4,16.7,28.78,NNW,335,5.0,11.0,72,0.00,,---,0.00,VWS V14.01,2013-01-03 19:52:00,
2013-01-03 14:59:00,24.4,16.4,28.78,North,358,6.0,16.0,71,0.00,,---,0.00,VWS V14.01,2013-01-03 19:59:00,
2013-01-03 15:00:00,25.2,17.5,28.79,NW,314,6.0,11.0,72,0.00,,---,0.00,VWS V14.01,2013-01-03 20:00:00,
2013-01-03 15:05:00,24.5,16.5,28.78,NW,321,3.0,8.0,71,0.00,,---,0.00,VWS V14.01,2013-01-03 20:05:00,
2013-01-03 15:11:00,24.6,16.9,28.78,WNW,302,2.0,9.0,72,0.00,,---,0.00,VWS V14.01,2013-01-03 20:11:00,
2013-01-03 15:17:00,24.6,16.5,28.78,West,273,3.0,9.0,71,0.00,,---,0.00,VWS V14.01,2013-01-03 20:17:00,
2013-01-03 15:23:00,24.6,16.9,28.78,North,1,3.0,9.0,72,0.00,,---,0.00,VWS V14.01,2013-01-03 20:23:00,
2013-01-03 15:29:00,24.7,17.0,28.78,NW,325,3.0,9.0,72,0.00,,---,0.00,VWS V14.01,2013-01-03 20:29:00,
2013-01-03 15:30:00,25.5,17.4,28.79,WNW,300,8.0,13.0,71,0.00,,---,0.00,VWS V14.01,2013-01-03 20:30:00,
2013-01-03 15:35:00,24.8,17.1,28.78,NW,312,3.0,10.0,72,0.00,,---,0.00,VWS V14.01,2013-01-03 20:35:00,
2013-01-03 15:41:00,24.9,17.2,28.78,NW,320,5.0,10.0,72,0.00,,---,0.00,VWS V14.01,2013-01-03 20:41:00,
2013-01-03 15:47:00,25.0,17.3,28.78,NNW,330,6.0,10.0,72,0.00,,---,0.00,VWS V14.01,2013-01-03 20:47:00,
2013-01-03 15:53:00,25.1,17.4,28.78,NW,323,7.0,11.0,72,0.00,,---,0.00,VWS V14.01,2013-01-03 20:53:00,
2013-01-03 15:59:00,25.2,17.5,28.79,NNW,328,7.0,11.0,72,0.00,,---,0.00,VWS V14.01,2013-01-03 20:59:00,
2013-01-03 16:00:00,25.6,17.8,28.80,WNW,300,6.0,12.0,72,0.00,,---,0.00,VWS V14.01,2013-01-03 21:00:00,
2013-01-03 16:05:00,25.2,17.5,28.79,NW,320,7.0,10.0,72,0.00,,---,0.00,VWS V14.01,2013-01-03 21:05:00,
2013-01-03 16:11:00,25.3,17.5,28.79,NW,316,6.0,10.0,72,0.00,,---,0.00,VWS V14.01,2013-01-03 21:11:00,
2013-01-03 16:17:00,25.4,17.3,28.79,WNW,285,4.0,12.0,71,0.00,,---,0.00,VWS V14.01,2013-01-03 21:17:00,
2013-01-03 16:23:00,25.4,17.3,28.79,NW,320,7.0,12.0,71,0.00,,---,0.00,VWS V14.01,2013-01-03 21:23:00,
2013-01-03 16:29:00,25.4,17.3,28.79,NNW,327,6.0,13.0,71,0.00,,---,0.00,VWS V14.01,2013-01-03 21:29:00,
2013-01-03 16:30:00,26.0,18.2,28.80,WNW,293,4.0,12.0,72,0.00,,---,0.00,VWS V14.01,2013-01-03 21:30:00,
2013-01-03 16:35:00,25.5,17.4,28.79,NNW,329,5.0,10.0,71,0.00,,---,0.00,VWS V14.01,2013-01-03 21:35:00,
2013-01-03 16:46:00,25.5,17.8,28.80,NNW,338,11.0,11.0,72,0.00,,---,0.00,VWS V14.01,2013-01-03 21:46:00,
2013-01-03 16:52:00,25.5,17.8,28.80,NNW,333,4.0,12.0,72,0.00,,---,0.00,VWS V14.01,2013-01-03 21:52:00,
2013-01-03 16:58:00,25.6,17.8,28.80,NNW,337,8.0,12.0,72,0.00,,---,0.00,VWS V14.01,2013-01-03 21:58:00,
2013-01-03 17:00:00,26.1,18.0,28.81,NW,321,6.0,15.0,71,0.00,,---,0.00,VWS V14.01,2013-01-03 22:00:00,
2013-01-03 17:04:00,25.7,17.9,28.80,NW,321,7.0,9.0,72,0.00,,---,0.00,VWS V14.01,2013-01-03 22:04:00,
2013-01-03 17:10:00,25.8,18.0,28.80,WNW,296,4.0,10.0,72,0.00,,---,0.00,VWS V14.01,2013-01-03 22:10:00,
2013-01-03 17:16:00,25.9,18.1,28.80,NNW,328,8.0,10.0,72,0.00,,---,0.00,VWS V14.01,2013-01-03 22:16:00,
2013-01-03 17:22:00,25.9,18.1,28.80,NW,323,10.0,12.0,72,0.00,,---,0.00,VWS V14.01,2013-01-03 22:22:00,
2013-01-03 17:28:00,26.0,18.2,28.80,WNW,293,3.0,12.0,72,0.00,,---,0.00,VWS V14.01,2013-01-03 22:28:00,
2013-01-03 17:30:00,26.0,18.5,28.81,NW,321,5.0,17.0,73,0.00,,---,0.00,VWS V14.01,2013-01-03 22:30:00,
2013-01-03 17:34:00,26.0,17.9,28.80,WNW,287,4.0,15.0,71,0.00,,---,0.00,VWS V14.01,2013-01-03 22:34:00,
2013-01-03 17:40:00,26.1,18.0,28.81,NNW,332,5.0,15.0,71,0.00,,---,0.00,VWS V14.01,2013-01-03 22:40:00,
2013-01-03 17:46:00,26.1,18.0,28.81,NW,323,7.0,15.0,71,0.00,,---,0.00,VWS V14.01,2013-01-03 22:46:00,
2013-01-03 17:52:00,26.1,18.0,28.81,WNW,283,3.0,15.0,71,0.00,,---,0.00,VWS V14.01,2013-01-03 22:52:00,
2013-01-03 17:58:00,26.1,18.0,28.82,NW,324,7.0,15.0,71,0.00,,---,0.00,VWS V14.01,2013-01-03 22:58:00,
2013-01-03 18:00:00,25.9,18.8,28.83,North,356,4.0,13.0,74,0.00,,---,0.00,VWS V14.01,2013-01-03 23:00:00,
2013-01-03 18:04:00,26.1,18.0,28.82,NNW,342,2.0,12.0,71,0.00,,---,0.00,VWS V14.01,2013-01-03 23:04:00,
2013-01-03 18:10:00,26.1,18.0,28.81,NW,326,4.0,15.0,71,0.00,,---,0.00,VWS V14.01,2013-01-03 23:10:00,
2013-01-03 18:16:00,26.1,18.3,28.81,NW,315,8.0,17.0,72,0.00,,---,0.00,VWS V14.01,2013-01-03 23:16:00,
2013-01-03 18:22:00,26.1,18.3,28.81,NW,316,6.0,17.0,72,0.00,,---,0.00,VWS V14.01,2013-01-03 23:22:00,
2013-01-03 18:28:00,26.1,18.6,28.81,NW,315,9.0,17.0,73,0.00,,---,0.00,VWS V14.01,2013-01-03 23:28:00,
2013-01-03 18:30:00,26.1,19.6,28.84,WNW,303,7.0,12.0,76,0.00,,---,0.00,VWS V14.01,2013-01-03 23:30:00,
2013-01-03 18:34:00,26.0,18.5,28.82,NW,310,10.0,12.0,73,0.00,,---,0.00,VWS V14.01,2013-01-03 23:34:00,
2013-01-03 18:41:00,26.0,18.5,28.82,NW,314,5.0,13.0,73,0.00,,---,0.00,VWS V14.01,2013-01-03 23:41:00,
2013-01-03 18:47:00,25.9,18.8,28.82,North,350,6.0,13.0,74,0.00,,---,0.00,VWS V14.01,2013-01-03 23:47:00,
2013-01-03 18:53:00,25.9,18.8,28.82,NW,312,6.0,13.0,74,0.00,,---,0.00,VWS V14.01,2013-01-03 23:53:00,
2013-01-03 18:59:00,26.0,18.9,28.82,NW,319,6.0,13.0,74,0.00,,---,0.00,VWS V14.01,2013-01-03 23:59:00,
2013-01-03 19:00:00,26.0,20.7,28.85,NNW,332,6.0,12.0,80,0.00,,---,0.00,VWS V14.01,2013-01-04 00:00:00,
2013-01-03 19:05:00,26.0,18.9,28.83,NNW,341,3.0,8.0,74,0.00,,---,0.00,VWS V14.01,2013-01-04 00:05:00,
2013-01-03 19:11:00,26.0,19.2,28.83,North,349,4.0,9.0,75,0.00,,---,0.00,VWS V14.01,2013-01-04 00:11:00,
2013-01-03 19:17:00,26.1,19.3,28.84,North,349,7.0,12.0,75,0.00,,---,0.00,VWS V14.01,2013-01-04 00:17:00,
2013-01-03 19:23:00,26.1,19.3,28.84,NNW,348,4.0,12.0,75,0.00,,---,0.00,VWS V14.01,2013-01-04 00:23:00,
2013-01-03 19:29:00,26.1,19.6,28.84,NNW,333,7.0,12.0,76,0.00,,---,0.00,VWS V14.01,2013-01-04 00:29:00,
2013-01-03 19:30:00,26.7,21.7,28.85,NW,307,7.0,14.0,81,0.00,,---,0.00,VWS V14.01,2013-01-04 00:30:00,
2013-01-03 19:35:00,26.1,19.9,28.84,North,357,3.0,10.0,77,0.00,,---,0.00,VWS V14.01,2013-01-04 00:35:00,
2013-01-03 19:41:00,26.0,20.1,28.85,NNW,333,5.0,10.0,78,0.00,,---,0.00,VWS V14.01,2013-01-04 00:41:00,
2013-01-03 19:47:00,25.9,20.0,28.85,NNW,342,3.0,10.0,78,0.00,,---,0.00,VWS V14.01,2013-01-04 00:47:00,
2013-01-03 19:53:00,25.9,20.6,28.85,NNW,343,3.0,12.0,80,0.00,,---,0.00,VWS V14.01,2013-01-04 00:53:00,
2013-01-03 19:59:00,26.0,20.7,28.85,NW,304,3.0,12.0,80,0.00,,---,0.00,VWS V14.01,2013-01-04 00:59:00,
2013-01-03 20:00:00,26.7,21.7,28.85,North,355,3.0,13.0,81,0.00,,---,0.00,VWS V14.01,2013-01-04 01:00:00,
2013-01-03 20:05:00,26.1,21.1,28.85,NW,312,1.0,9.0,81,0.00,,---,0.00,VWS V14.01,2013-01-04 01:05:00,
2013-01-03 20:11:00,26.3,21.3,28.84,NNW,345,3.0,12.0,81,0.00,,---,0.00,VWS V14.01,2013-01-04 01:11:00,
2013-01-03 20:17:00,26.4,21.4,28.85,NNW,328,7.0,14.0,81,0.00,,---,0.00,VWS V14.01,2013-01-04 01:17:00,
2013-01-03 20:23:00,26.5,21.5,28.85,NW,323,5.0,14.0,81,0.00,,---,0.00,VWS V14.01,2013-01-04 01:23:00,
2013-01-03 20:29:00,26.7,21.7,28.85,NW,307,10.0,14.0,81,0.00,,---,0.00,VWS V14.01,2013-01-04 01:29:00,
2013-01-03 20:30:00,26.7,21.7,28.86,NNW,330,5.0,16.0,81,0.00,,---,0.00,VWS V14.01,2013-01-04 01:30:00,
2013-01-03 20:36:00,26.7,21.7,28.85,NW,319,3.0,12.0,81,0.00,,---,0.00,VWS V14.01,2013-01-04 01:36:00,
2013-01-03 20:42:00,26.8,21.8,28.85,NW,320,4.0,12.0,81,0.00,,---,0.00,VWS V14.01,2013-01-04 01:42:00,
2013-01-03 20:48:00,26.8,21.8,28.85,NW,315,5.0,13.0,81,0.00,,---,0.00,VWS V14.01,2013-01-04 01:48:00,
2013-01-03 20:54:00,26.7,21.7,28.86,NNW,332,5.0,13.0,81,0.00,,---,0.00,VWS V14.01,2013-01-04 01:54:00,
2013-01-03 21:00:00,26.7,21.7,28.85,North,357,2.0,13.0,81,0.00,,---,0.00,VWS V14.01,2013-01-04 02:00:00,
2013-01-03 21:06:00,26.7,21.7,28.86,North,359,3.0,13.0,81,0.00,,---,0.00,VWS V14.01,2013-01-04 02:06:00,
2013-01-03 21:12:00,26.7,21.7,28.86,NW,322,6.0,13.0,81,0.00,,---,0.00,VWS V14.01,2013-01-04 02:12:00,
2013-01-03 21:18:00,26.7,21.7,28.86,NW,321,9.0,16.0,81,0.00,,---,0.00,VWS V14.01,2013-01-04 02:18:00,
2013-01-03 21:24:00,26.7,21.7,28.86,NNW,336,1.0,16.0,81,0.00,,---,0.00,VWS V14.01,2013-01-04 02:24:00,
2013-01-03 21:30:00,26.7,21.7,28.86,NNW,330,5.0,16.0,81,0.00,,---,0.00,VWS V14.01,2013-01-04 02:30:00,
2013-01-03 21:36:00,26.7,21.7,28.86,NNW,334,3.0,13.0,81,0.00,,---,0.00,VWS V14.01,2013-01-04 02:36:00,
2013-01-03 21:42:00,26.6,21.6,28.85,NW,305,7.0,13.0,81,0.00,,---,0.00,VWS V14.01,2013-01-04 02:42:00,
2013-01-03 21:48:00,26.6,21.6,28.85,NNW,330,3.0,13.0,81,0.00,,---,0.00,VWS V14.01,2013-01-04 02:48:00,
2013-01-03 21:54:00,26.6,21.6,28.85,WNW,293,5.0,13.0,81,0.00,,---,0.00,VWS V14.01,2013-01-04 02:54:00,
2013-01-03 22:00:00,26.6,21.6,28.85,NW,316,11.0,14.0,81,0.00,,---,0.00,VWS V14.01,2013-01-04 03:00:00,
2013-01-03 22:06:00,26.6,21.6,28.85,NNW,335,2.0,13.0,81,0.00,,---,0.00,VWS V14.01,2013-01-04 03:06:00,
2013-01-03 22:12:00,26.6,21.6,28.85,WNW,295,8.0,13.0,81,0.00,,---,0.00,VWS V14.01,2013-01-04 03:12:00,
2013-01-03 22:18:00,26.7,21.7,28.85,NNW,327,6.0,13.0,81,0.00,,---,0.00,VWS V14.01,2013-01-04 03:18:00,
2013-01-03 22:24:00,26.7,21.4,28.85,NNW,330,2.0,15.0,80,0.00,,---,0.00,VWS V14.01,2013-01-04 03:24:00,
2013-01-03 22:30:00,26.6,21.6,28.85,NNW,348,2.0,15.0,81,0.00,,---,0.00,VWS V14.01,2013-01-04 03:30:00,
2013-01-03 22:36:00,26.6,21.6,28.85,NNW,333,3.0,10.0,81,0.00,,---,0.00,VWS V14.01,2013-01-04 03:36:00,
2013-01-03 22:42:00,26.6,21.6,28.85,NNW,330,0.0,12.0,81,0.00,,---,0.00,VWS V14.01,2013-01-04 03:42:00,
2013-01-03 22:49:00,26.6,21.6,28.85,WNW,296,4.0,13.0,81,0.00,,---,0.00,VWS V14.01,2013-01-04 03:49:00,
2013-01-03 22:55:00,26.6,21.6,28.85,NW,305,5.0,13.0,81,0.00,,---,0.00,VWS V14.01,2013-01-04 03:55:00,
2013-01-03 23:00:00,26.7,21.7,28.86,NNW,334,9.0,13.0,81,0.00,,---,0.00,VWS V14.01,2013-01-04 04:00:00,
2013-01-03 23:07:00,26.7,21.4,28.86,North,357,2.0,12.0,80,0.00,,---,0.00,VWS V14.01,2013-01-04 04:07:00,
2013-01-03 23:13:00,26.7,21.4,28.86,North,352,7.0,12.0,80,0.00,,---,0.00,VWS V14.01,2013-01-04 04:13:00,
2013-01-03 23:19:00,26.7,21.4,28.86,NW,322,2.0,12.0,80,0.00,,---,0.00,VWS V14.01,2013-01-04 04:19:00,
2013-01-03 23:25:00,26.8,21.5,28.86,NNW,336,8.0,12.0,80,0.00,,---,0.00,VWS V14.01,2013-01-04 04:25:00,
2013-01-03 23:30:00,26.8,21.5,28.86,WNW,293,8.0,12.0,80,0.00,,---,0.00,VWS V14.01,2013-01-04 04:30:00,
2013-01-03 23:35:00,26.8,21.5,28.86,NNW,327,5.0,12.0,80,0.00,,---,0.00,VWS V14.01,2013-01-04 04:35:00,
2013-01-03 23:41:00,26.9,21.6,28.86,NNW,327,8.0,12.0,80,0.00,,---,0.00,VWS V14.01,2013-01-04 04:41:00,
2013-01-03 23:47:00,26.9,21.6,28.86,NNW,340,6.0,12.0,80,0.00,,---,0.00,VWS V14.01,2013-01-04 04:47:00,
2013-01-03 23:53:00,26.9,21.3,28.86,NNW,333,5.0,14.0,79,0.00,,---,0.00,VWS V14.01,2013-01-04 04:53:00,
2013-01-03 23:59:00,26.9,21.6,28.86,NNW,334,5.0,14.0,80,0.00,,---,0.00,VWS V14.01,2013-01-04 04:59:00,